createdAt,value
2023-05-12T00:02:12.320Z,53.81
2023-05-12T00:04:39.036Z,53.97
2023-05-12T00:07:06.364Z,53.58
2023-05-12T00:09:35.837Z,54.24
2023-05-12T00:12:02.613Z,53.76
2023-05-12T00:14:29.276Z,54.38
2023-05-12T00:16:55.981Z,54.07
2023-05-12T00:19:22.530Z,54.72
2023-05-12T00:21:49.076Z,54.82
2023-05-12T00:24:15.738Z,55.02
2023-05-12T00:26:42.347Z,55.28
2023-05-12T00:29:08.852Z,55.46
2023-05-12T00:31:35.385Z,56.28
2023-05-12T00:34:01.955Z,57.72
2023-05-12T00:36:28.483Z,57.48
2023-05-12T00:38:55.030Z,56.99
2023-05-12T00:41:21.725Z,57.29
2023-05-12T00:43:48.370Z,57.04
2023-05-12T00:46:15.663Z,56.67
2023-05-12T00:48:43.582Z,55.91
2023-05-12T00:51:10.448Z,55.93
2023-05-12T00:53:48.258Z,55.74
2023-05-12T00:56:19.065Z,55.63
2023-05-12T00:58:46.348Z,55.06
2023-05-12T01:01:13.450Z,55.47
2023-05-12T01:03:40.274Z,55.33
2023-05-12T01:06:16.433Z,56.13
2023-05-12T01:08:44.046Z,56.50
2023-05-12T01:11:10.669Z,58.00
2023-05-12T01:13:37.186Z,62.31
2023-05-12T01:16:06.545Z,60.45
2023-05-12T01:18:37.783Z,61.31
2023-05-12T01:21:05.841Z,61.37
2023-05-12T01:23:39.823Z,61.15
2023-05-12T01:26:08.393Z,61.09
2023-05-12T01:28:37.093Z,60.42
2023-05-12T01:31:06.295Z,60.11
2023-05-12T01:33:33.912Z,59.62
2023-05-12T01:36:00.651Z,58.86
2023-05-12T01:38:28.442Z,58.06
2023-05-12T01:40:55.078Z,57.87
2023-05-12T01:43:22.322Z,57.58
2023-05-12T01:45:49.020Z,56.79
2023-05-12T01:48:15.779Z,56.63
2023-05-12T01:50:42.440Z,56.06
2023-05-12T01:53:09.056Z,56.47
2023-05-12T01:55:35.981Z,56.81
2023-05-12T01:58:02.823Z,56.37
2023-05-12T02:00:30.610Z,55.04
2023-05-12T02:02:57.287Z,54.99
2023-05-12T02:05:24.070Z,55.06
2023-05-12T02:07:50.664Z,54.13
2023-05-12T02:10:17.408Z,56.94
2023-05-12T02:12:44.162Z,59.18
2023-05-12T02:15:10.993Z,60.12
2023-05-12T02:17:37.512Z,60.84
2023-05-12T02:20:04.318Z,59.39
2023-05-12T02:22:30.768Z,59.00
2023-05-12T02:24:57.326Z,59.07
2023-05-12T02:27:23.875Z,58.31
2023-05-12T02:29:50.366Z,57.44
2023-05-12T02:32:16.848Z,57.35
2023-05-12T02:34:43.386Z,57.35
2023-05-12T02:37:09.833Z,58.28
2023-05-12T02:39:36.384Z,56.97
2023-05-12T02:42:02.952Z,56.76
2023-05-12T02:44:29.467Z,56.46
2023-05-12T02:46:56.038Z,56.43
2023-05-12T02:49:22.627Z,57.65
2023-05-12T02:51:49.138Z,56.32
2023-05-12T02:54:15.653Z,56.44
2023-05-12T02:56:42.294Z,56.22
2023-05-12T02:59:08.788Z,55.64
2023-05-12T03:01:35.412Z,55.77
2023-05-12T03:04:01.988Z,55.44
2023-05-12T03:06:29.778Z,55.24
2023-05-12T03:08:56.398Z,54.52
2023-05-12T03:11:23.123Z,54.56
2023-05-12T03:13:49.625Z,54.30
2023-05-12T03:16:16.822Z,54.72
2023-05-12T03:18:45.027Z,54.62
2023-05-12T03:21:11.631Z,54.45
2023-05-12T03:23:38.230Z,54.52
2023-05-12T03:26:04.789Z,56.70
2023-05-12T03:28:31.316Z,55.90
2023-05-12T03:30:57.888Z,56.91
2023-05-12T03:33:24.508Z,58.10
2023-05-12T03:35:51.011Z,57.41
2023-05-12T03:38:17.590Z,56.39
2023-05-12T03:40:44.161Z,56.78
2023-05-12T03:43:10.685Z,56.90
2023-05-12T03:45:37.239Z,56.24
2023-05-12T03:48:03.967Z,54.79
2023-05-12T03:50:30.504Z,54.77
2023-05-12T03:52:57.042Z,55.11
2023-05-12T03:55:23.691Z,54.99
2023-05-12T03:57:50.285Z,54.65
2023-05-12T04:00:17.504Z,55.14
2023-05-12T04:02:44.465Z,55.39
2023-05-12T04:05:11.223Z,55.47
2023-05-12T04:07:37.704Z,56.33
2023-05-12T04:10:04.583Z,56.01
2023-05-12T04:12:31.105Z,55.21
2023-05-12T04:14:58.139Z,54.66
2023-05-12T04:17:24.748Z,54.50
2023-05-12T04:19:51.333Z,54.97
2023-05-12T04:22:17.912Z,54.64
2023-05-12T04:24:44.547Z,54.41
2023-05-12T04:27:11.180Z,54.47
2023-05-12T04:29:37.737Z,54.72
2023-05-12T04:32:04.734Z,54.37
2023-05-12T04:34:31.487Z,54.34
2023-05-12T04:36:58.042Z,55.13
2023-05-12T04:39:24.793Z,55.15
2023-05-12T04:41:51.340Z,55.34
2023-05-12T04:44:17.844Z,55.35
2023-05-12T04:46:44.465Z,54.98
2023-05-12T04:49:11.027Z,54.95
2023-05-12T04:51:37.618Z,55.23
2023-05-12T04:54:04.190Z,55.83
2023-05-12T04:56:30.758Z,56.34
2023-05-12T04:58:57.267Z,56.33
2023-05-12T05:01:23.898Z,57.17
2023-05-12T05:03:50.669Z,58.05
2023-05-12T05:06:17.312Z,58.89
2023-05-12T05:08:43.942Z,58.40
2023-05-12T05:11:10.515Z,59.02
2023-05-12T05:13:37.127Z,58.24
2023-05-12T05:16:03.788Z,59.22
2023-05-12T05:18:30.441Z,62.67
2023-05-12T05:20:58.864Z,61.09
2023-05-12T05:23:26.241Z,61.91
2023-05-12T05:25:52.932Z,62.39
2023-05-12T05:28:19.427Z,61.23
2023-05-12T05:30:45.964Z,61.83
2023-05-12T05:33:12.490Z,60.80
2023-05-12T05:35:39.142Z,60.84
2023-05-12T05:38:05.675Z,60.76
2023-05-12T05:40:44.855Z,61.31
2023-05-12T05:43:15.753Z,62.54
2023-05-12T05:45:42.265Z,62.21
2023-05-12T05:48:08.881Z,62.78
2023-05-12T05:50:35.575Z,60.92
2023-05-12T05:53:02.200Z,60.08
2023-05-12T05:55:28.742Z,59.29
2023-05-12T05:57:55.375Z,58.58
2023-05-12T06:00:22.017Z,60.65
2023-05-12T06:02:48.871Z,62.21
2023-05-12T06:05:15.808Z,63.11
2023-05-12T06:07:42.595Z,62.34
2023-05-12T06:10:09.501Z,62.04
2023-05-12T06:12:36.376Z,61.66
2023-05-12T06:15:03.206Z,61.82
2023-05-12T06:17:31.923Z,61.16
2023-05-12T06:19:59.512Z,60.59
2023-05-12T06:22:26.259Z,62.16
2023-05-12T06:24:52.930Z,60.12
2023-05-12T06:27:19.706Z,60.58
2023-05-12T06:29:46.322Z,59.36
2023-05-12T06:32:13.195Z,58.72
2023-05-12T06:34:40.317Z,58.78
2023-05-12T06:37:07.017Z,58.29
2023-05-12T06:39:33.701Z,58.29
2023-05-12T06:42:00.541Z,56.80
2023-05-12T06:44:27.206Z,56.13
2023-05-12T06:46:54.098Z,56.56
2023-05-12T06:49:21.450Z,56.87
2023-05-12T06:51:48.163Z,56.37
2023-05-12T06:54:14.826Z,56.64
2023-05-12T06:56:41.508Z,57.00
2023-05-12T06:59:08.281Z,56.97
2023-05-12T07:01:34.937Z,58.81
2023-05-12T07:04:01.671Z,57.67
2023-05-12T07:06:28.658Z,57.00
2023-05-12T07:08:56.123Z,56.70
2023-05-12T07:11:23.190Z,57.67
2023-05-12T07:13:50.887Z,60.60
2023-05-12T07:16:19.858Z,59.39
2023-05-12T07:18:47.219Z,59.38
2023-05-12T07:21:14.319Z,62.34
2023-05-12T07:23:41.396Z,60.51
2023-05-12T07:26:08.210Z,61.11
2023-05-12T07:28:36.100Z,62.03
2023-05-12T07:31:03.975Z,62.56
2023-05-12T07:33:31.264Z,62.76
2023-05-12T07:35:57.994Z,62.92
2023-05-12T07:38:24.934Z,63.67
2023-05-12T07:40:51.533Z,63.09
2023-05-12T07:43:18.758Z,62.96
2023-05-12T07:45:45.998Z,62.21
2023-05-12T07:48:13.181Z,61.53
2023-05-12T07:50:39.772Z,61.50
2023-05-12T07:53:06.718Z,61.41
2023-05-12T07:55:33.875Z,60.22
2023-05-12T07:58:00.575Z,59.81
2023-05-12T08:00:27.525Z,60.25
2023-05-12T08:02:54.408Z,61.09
2023-05-12T08:05:21.475Z,60.16
2023-05-12T08:07:48.192Z,60.11
2023-05-12T08:10:14.659Z,60.89
2023-05-12T08:12:42.414Z,59.89
2023-05-12T08:15:09.634Z,59.36
2023-05-12T08:17:36.560Z,59.71
2023-05-12T08:20:04.056Z,59.72
2023-05-12T08:22:31.322Z,59.60
2023-05-12T08:24:57.818Z,60.60
2023-05-12T08:27:24.427Z,60.02
2023-05-12T08:29:50.969Z,59.04
2023-05-12T08:32:17.579Z,59.55
2023-05-12T08:34:44.079Z,59.79
2023-05-12T08:37:11.584Z,58.40
2023-05-12T08:39:38.080Z,58.50
2023-05-12T08:42:24.864Z,58.43
2023-05-12T08:44:54.246Z,58.96
2023-05-12T08:47:23.277Z,58.18
2023-05-12T08:49:59.956Z,56.60
2023-05-12T08:52:32.547Z,57.07
2023-05-12T08:55:01.024Z,57.53
2023-05-12T08:57:30.080Z,55.92
2023-05-12T08:59:58.677Z,55.19
2023-05-12T09:02:25.811Z,54.47
2023-05-12T09:04:55.512Z,54.53
2023-05-12T09:07:22.849Z,54.70
2023-05-12T09:09:59.291Z,53.07
2023-05-12T09:12:34.135Z,53.11
2023-05-12T09:15:05.179Z,52.43
2023-05-12T09:17:31.700Z,51.38
2023-05-12T09:19:58.226Z,50.93
2023-05-12T09:22:32.092Z,51.06
2023-05-12T09:24:59.569Z,50.99
2023-05-12T09:27:30.087Z,49.53
2023-05-12T09:29:59.743Z,49.91
2023-05-12T09:32:34.334Z,48.60
2023-05-12T09:35:08.799Z,48.79
2023-05-12T09:37:39.087Z,48.91
2023-05-12T09:40:08.028Z,48.52
2023-05-12T09:42:35.703Z,48.61
2023-05-12T09:45:06.701Z,49.48
2023-05-12T09:47:38.388Z,47.68
2023-05-12T09:50:07.514Z,47.64
2023-05-12T09:52:39.124Z,47.19
2023-05-12T09:55:11.090Z,48.88
2023-05-12T09:57:43.296Z,49.73
2023-05-12T10:00:30.327Z,49.88
2023-05-12T10:03:04.330Z,48.89
2023-05-12T10:05:31.825Z,49.65
2023-05-12T10:08:03.335Z,47.28
2023-05-12T10:10:30.044Z,47.36
2023-05-12T10:12:56.801Z,48.83
2023-05-12T10:15:24.301Z,47.83
2023-05-12T10:17:54.173Z,46.70
2023-05-12T10:20:21.262Z,46.91
2023-05-12T10:22:49.683Z,45.68
2023-05-12T10:25:17.463Z,45.44
2023-05-12T10:27:44.758Z,46.87
2023-05-12T10:30:11.722Z,47.21
2023-05-12T10:32:38.265Z,47.58
2023-05-12T10:35:09.615Z,46.95
2023-05-12T10:37:36.800Z,45.77
2023-05-12T10:40:03.908Z,45.76
2023-05-12T10:42:43.452Z,46.56
2023-05-12T10:45:20.566Z,48.21
2023-05-12T10:47:49.248Z,47.95
2023-05-12T10:50:27.104Z,49.10
2023-05-12T10:52:57.252Z,49.24
2023-05-12T10:55:43.804Z,49.70
2023-05-12T10:58:12.576Z,48.61
2023-05-12T11:00:50.584Z,46.68
2023-05-12T11:03:25.284Z,45.74
2023-05-12T11:05:59.502Z,45.10
2023-05-12T11:08:28.331Z,45.14
2023-05-12T11:10:55.118Z,45.19
2023-05-12T11:13:21.783Z,44.42
2023-05-12T11:15:48.309Z,44.15
2023-05-12T11:18:20.758Z,44.66
2023-05-12T11:20:47.460Z,43.93
2023-05-12T11:23:24.484Z,44.16
2023-05-12T11:25:50.996Z,42.97
2023-05-12T11:28:17.564Z,43.19
2023-05-12T11:30:54.524Z,42.87
2023-05-12T11:33:22.487Z,41.93
2023-05-12T11:35:49.952Z,40.89
2023-05-12T11:38:17.656Z,41.11
2023-05-12T11:40:55.147Z,40.37
2023-05-12T11:43:21.696Z,40.59
2023-05-12T11:45:48.237Z,39.81
2023-05-12T11:48:15.061Z,39.75
2023-05-12T11:50:45.267Z,39.61
2023-05-12T11:53:17.473Z,39.71
2023-05-12T11:55:54.287Z,39.32
2023-05-12T11:58:24.119Z,39.35
2023-05-12T12:00:50.760Z,38.10
2023-05-12T12:03:17.514Z,37.61
2023-05-12T12:05:56.566Z,36.75
2023-05-12T12:08:23.078Z,37.47
2023-05-12T12:10:49.619Z,37.76
2023-05-12T12:13:23.886Z,38.57
2023-05-12T12:15:51.471Z,38.22
2023-05-12T12:18:18.131Z,38.06
2023-05-12T12:20:46.092Z,38.21
2023-05-12T12:23:12.599Z,37.15
2023-05-12T12:25:39.169Z,36.41
2023-05-12T12:28:05.724Z,37.25
2023-05-12T12:30:32.237Z,34.85
2023-05-12T12:32:58.818Z,35.07
2023-05-12T12:35:25.404Z,35.41
2023-05-12T12:37:52.069Z,36.56
2023-05-12T12:40:19.593Z,36.03
2023-05-12T12:42:46.487Z,35.90
2023-05-12T12:45:13.276Z,36.06
2023-05-12T12:47:39.985Z,36.99
2023-05-12T12:50:08.194Z,37.08
2023-05-12T12:52:35.525Z,36.22
2023-05-12T12:55:02.001Z,36.21
2023-05-12T12:57:28.488Z,37.06
2023-05-12T12:59:55.070Z,37.05
2023-05-12T13:02:21.807Z,37.54
2023-05-12T13:04:48.383Z,38.21
2023-05-12T13:07:14.902Z,38.37
2023-05-12T13:09:41.385Z,39.19
2023-05-12T13:12:08.258Z,38.51
2023-05-12T13:14:34.805Z,37.39
2023-05-12T13:17:01.431Z,38.00
2023-05-12T13:19:27.981Z,39.13
2023-05-12T13:21:54.510Z,39.94
2023-05-12T13:24:20.994Z,40.00
2023-05-12T13:26:47.514Z,40.53
2023-05-12T13:29:13.990Z,39.46
2023-05-12T13:31:40.476Z,39.15
2023-05-12T13:34:07.065Z,38.52
2023-05-12T13:36:33.521Z,37.67
2023-05-12T13:39:00.264Z,38.29
2023-05-12T13:41:26.803Z,38.00
2023-05-12T13:43:53.268Z,38.26
2023-05-12T13:46:19.792Z,39.13
2023-05-12T13:48:46.347Z,39.20
2023-05-12T13:51:12.874Z,38.96
2023-05-12T13:53:39.367Z,38.62
2023-05-12T13:56:06.498Z,38.31
2023-05-12T13:58:32.968Z,38.73
2023-05-12T14:01:00.120Z,37.88
2023-05-12T14:03:26.636Z,37.78
2023-05-12T14:05:53.128Z,38.24
2023-05-12T14:08:19.656Z,38.64
2023-05-12T14:10:46.231Z,39.46
2023-05-12T14:13:12.702Z,40.60
2023-05-12T14:15:48.589Z,41.11
2023-05-12T14:18:16.056Z,41.22
2023-05-12T14:20:42.617Z,41.71
2023-05-12T14:23:09.105Z,41.87
2023-05-12T14:25:35.655Z,43.80
2023-05-12T14:28:02.475Z,43.14
2023-05-12T14:30:29.257Z,43.16
2023-05-12T14:32:55.874Z,42.74
2023-05-12T14:35:22.972Z,42.62
2023-05-12T14:37:49.590Z,40.30
2023-05-12T14:40:16.054Z,40.45
2023-05-12T14:42:42.510Z,40.25
2023-05-12T14:45:09.443Z,38.30
2023-05-12T14:47:35.949Z,38.89
2023-05-12T14:50:02.414Z,39.18
2023-05-12T14:52:28.962Z,39.40
2023-05-12T14:54:55.439Z,40.22
2023-05-12T14:57:21.897Z,40.29
2023-05-12T14:59:48.376Z,41.06
2023-05-12T15:02:14.837Z,42.49
2023-05-12T15:04:41.396Z,42.74
2023-05-12T15:07:08.084Z,43.79
2023-05-12T15:09:34.542Z,43.48
2023-05-12T15:12:01.056Z,43.35
2023-05-12T15:14:27.533Z,43.59
2023-05-12T15:16:54.034Z,43.28
2023-05-12T15:19:20.535Z,44.16
2023-05-12T15:21:47.123Z,43.32
2023-05-12T15:24:13.614Z,42.59
2023-05-12T15:26:40.664Z,41.45
2023-05-12T15:29:07.381Z,41.02
2023-05-12T15:31:33.891Z,41.00
2023-05-12T15:34:00.588Z,40.93
2023-05-12T15:36:27.330Z,40.65
2023-05-12T15:38:53.799Z,40.35
2023-05-12T15:41:20.371Z,39.51
2023-05-12T15:43:46.875Z,39.49
2023-05-12T15:46:13.411Z,39.97
2023-05-12T15:48:40.007Z,38.83
2023-05-12T15:51:07.705Z,39.27
2023-05-12T15:53:34.209Z,38.75
2023-05-12T15:56:04.789Z,39.56
2023-05-12T15:58:32.061Z,40.24
2023-05-12T16:00:59.053Z,40.71
2023-05-12T16:03:26.408Z,40.53
2023-05-12T16:05:53.207Z,41.06
2023-05-12T16:08:19.700Z,40.68
2023-05-12T16:10:46.346Z,41.12
2023-05-12T16:13:12.823Z,40.42
2023-05-12T16:15:39.552Z,40.41
2023-05-12T16:18:09.185Z,41.94
2023-05-12T16:20:37.515Z,41.80
2023-05-12T16:23:04.028Z,42.58
2023-05-12T16:25:30.580Z,42.64
2023-05-12T16:27:57.700Z,42.37
2023-05-12T16:30:24.348Z,42.63
2023-05-12T16:32:50.929Z,41.98
2023-05-12T16:35:17.481Z,42.13
2023-05-12T16:37:44.006Z,42.53
2023-05-12T16:40:10.873Z,42.76
2023-05-12T16:42:37.352Z,42.24
2023-05-12T16:45:03.980Z,41.85
2023-05-12T16:47:30.537Z,40.19
2023-05-12T16:49:59.215Z,39.82
2023-05-12T16:52:26.382Z,40.31
2023-05-12T16:54:53.180Z,39.87
2023-05-12T16:57:20.845Z,40.67
2023-05-12T16:59:47.337Z,40.33
2023-05-12T17:02:14.039Z,41.41
2023-05-12T17:04:40.548Z,41.11
2023-05-12T17:07:07.073Z,42.22
2023-05-12T17:09:33.568Z,41.81
2023-05-12T17:12:00.061Z,41.61
2023-05-12T17:14:26.543Z,40.75
2023-05-12T17:16:53.144Z,41.41
2023-05-12T17:19:19.722Z,41.06
2023-05-12T17:21:46.227Z,42.30
2023-05-12T17:24:12.752Z,43.11
2023-05-12T17:26:39.265Z,43.09
2023-05-12T17:29:05.823Z,44.02
2023-05-12T17:31:32.400Z,44.88
2023-05-12T17:33:59.038Z,45.45
2023-05-12T17:36:25.536Z,47.08
2023-05-12T17:38:54.374Z,48.41
2023-05-12T17:41:20.995Z,49.12
2023-05-12T17:43:47.496Z,50.30
2023-05-12T17:46:14.188Z,49.43
2023-05-12T17:48:40.880Z,49.65
2023-05-12T17:51:07.416Z,48.97
2023-05-12T17:53:34.366Z,49.68
2023-05-12T17:56:00.877Z,49.60
2023-05-12T17:58:27.597Z,50.74
2023-05-12T18:00:54.093Z,51.52
2023-05-12T18:03:20.682Z,51.97
2023-05-12T18:05:47.170Z,51.41
2023-05-12T18:08:13.638Z,50.71
2023-05-12T18:10:40.151Z,50.89
2023-05-12T18:13:06.689Z,49.85
2023-05-12T18:15:33.207Z,49.99
2023-05-12T18:17:59.733Z,49.67
2023-05-12T18:20:26.357Z,48.82
2023-05-12T18:22:52.912Z,49.18
2023-05-12T18:25:20.227Z,49.46
2023-05-12T18:27:47.132Z,49.50
2023-05-12T18:30:14.454Z,51.08
2023-05-12T18:32:41.042Z,50.25
2023-05-12T18:35:07.991Z,50.47
2023-05-12T18:37:34.651Z,50.50
2023-05-12T18:40:01.147Z,50.53
2023-05-12T18:42:27.677Z,50.38
2023-05-12T18:44:54.194Z,50.35
2023-05-12T18:47:20.712Z,50.33
2023-05-12T18:49:47.216Z,51.11
2023-05-12T18:52:13.720Z,52.09
2023-05-12T18:54:40.265Z,51.64
2023-05-12T18:57:06.729Z,52.77
2023-05-12T18:59:33.229Z,51.65
2023-05-12T19:01:59.835Z,52.41
2023-05-12T19:04:26.471Z,52.16
2023-05-12T19:06:52.986Z,53.37
2023-05-12T19:09:19.462Z,53.36
2023-05-12T19:11:45.932Z,53.96
2023-05-12T19:14:12.470Z,54.32
2023-05-12T19:16:39.143Z,56.20
2023-05-12T19:19:05.768Z,56.21
2023-05-12T19:21:32.420Z,57.28
2023-05-12T19:23:59.010Z,57.26
2023-05-12T19:26:25.533Z,57.83
2023-05-12T19:28:52.009Z,57.28
2023-05-12T19:31:18.535Z,58.74
2023-05-12T19:33:45.214Z,57.48
2023-05-12T19:36:11.705Z,56.52
2023-05-12T19:38:38.230Z,56.79
2023-05-12T19:41:04.711Z,56.22
2023-05-12T19:43:31.212Z,55.73
2023-05-12T19:45:57.788Z,54.68
2023-05-12T19:48:24.392Z,54.35
2023-05-12T19:50:50.882Z,55.10
2023-05-12T19:53:17.377Z,55.75
2023-05-12T19:55:43.847Z,54.88
2023-05-12T19:58:10.358Z,55.07
2023-05-12T20:00:38.965Z,54.62
2023-05-12T20:03:05.864Z,54.29
2023-05-12T20:05:35.105Z,55.20
2023-05-12T20:08:01.596Z,55.19
2023-05-12T20:10:28.095Z,56.81
2023-05-12T20:12:54.567Z,57.18
2023-05-12T20:15:21.426Z,58.13
2023-05-12T20:17:48.206Z,58.97
2023-05-12T20:20:14.684Z,58.17
2023-05-12T20:22:41.164Z,58.00
2023-05-12T20:25:07.981Z,57.24
2023-05-12T20:27:34.495Z,57.91
2023-05-12T20:30:00.930Z,58.91
2023-05-12T20:32:27.504Z,58.38
2023-05-12T20:34:54.045Z,57.75
2023-05-12T20:37:20.595Z,57.40
2023-05-12T20:39:47.107Z,56.47
2023-05-12T20:42:13.606Z,56.63
2023-05-12T20:44:40.101Z,57.98
2023-05-12T20:47:06.691Z,59.05
2023-05-12T20:49:33.202Z,58.55
2023-05-12T20:51:59.674Z,58.33
2023-05-12T20:54:26.180Z,58.37
2023-05-12T20:56:52.746Z,57.92
2023-05-12T20:59:19.244Z,58.86
2023-05-12T21:01:45.841Z,59.45
2023-05-12T21:04:12.472Z,58.50
2023-05-12T21:06:39.040Z,59.30
2023-05-12T21:09:05.512Z,59.27
2023-05-12T21:11:32.071Z,58.75
2023-05-12T21:13:58.652Z,60.10
2023-05-12T21:16:25.197Z,59.93
2023-05-12T21:18:51.752Z,60.32
2023-05-12T21:21:18.280Z,59.97
2023-05-12T21:23:44.807Z,60.02
2023-05-12T21:26:11.304Z,60.99
2023-05-12T21:28:37.790Z,61.46
2023-05-12T21:31:04.364Z,60.51
2023-05-12T21:33:30.874Z,60.54
2023-05-12T21:35:57.380Z,61.97
2023-05-12T21:38:23.835Z,61.63
2023-05-12T21:40:51.273Z,60.87
2023-05-12T21:43:17.919Z,61.24
2023-05-12T21:45:44.460Z,61.67
2023-05-12T21:48:10.962Z,60.55
2023-05-12T21:50:37.437Z,60.21
2023-05-12T21:53:04.017Z,60.87
2023-05-12T21:55:30.526Z,60.59
2023-05-12T21:57:57.007Z,60.67
2023-05-12T22:00:23.757Z,59.77
2023-05-12T22:02:50.562Z,60.10
2023-05-12T22:05:17.135Z,59.65
2023-05-12T22:07:43.668Z,60.40
2023-05-12T22:10:10.149Z,60.28
2023-05-12T22:12:36.647Z,59.99
2023-05-12T22:15:03.450Z,60.80
2023-05-12T22:17:30.030Z,59.94
2023-05-12T22:19:56.601Z,61.23
2023-05-12T22:22:23.113Z,61.07
2023-05-12T22:24:49.620Z,61.20
2023-05-12T22:27:16.122Z,61.27
2023-05-12T22:29:42.586Z,61.31
2023-05-12T22:32:09.129Z,62.03
2023-05-12T22:34:35.604Z,61.38
2023-05-12T22:37:02.124Z,61.51
2023-05-12T22:39:28.633Z,61.97
2023-05-12T22:41:55.095Z,60.68
2023-05-12T22:44:21.601Z,60.85
2023-05-12T22:46:48.135Z,61.62
2023-05-12T22:49:14.673Z,62.09
2023-05-12T22:51:41.171Z,61.54
2023-05-12T22:54:07.646Z,61.17
2023-05-12T22:56:34.202Z,62.30
2023-05-12T22:59:00.692Z,62.15
2023-05-12T23:01:27.310Z,62.39
2023-05-12T23:03:53.933Z,62.23
2023-05-12T23:06:20.500Z,62.04
2023-05-12T23:08:47.014Z,61.48
2023-05-12T23:11:13.508Z,62.89
2023-05-12T23:13:40.016Z,62.18
2023-05-12T23:16:06.917Z,61.53
2023-05-12T23:18:33.494Z,63.20
2023-05-12T23:21:00.067Z,63.02
2023-05-12T23:23:26.644Z,61.89
2023-05-12T23:25:53.165Z,62.68
2023-05-12T23:28:19.618Z,62.26
2023-05-12T23:30:46.162Z,62.45
2023-05-12T23:33:12.766Z,62.15
2023-05-12T23:35:39.414Z,62.68
2023-05-12T23:38:05.960Z,63.69
2023-05-12T23:40:32.441Z,64.15
2023-05-12T23:42:59.176Z,64.90
2023-05-12T23:45:25.691Z,65.01
2023-05-12T23:47:52.194Z,64.57
2023-05-12T23:50:18.862Z,64.30
2023-05-12T23:52:45.615Z,63.34
2023-05-12T23:55:12.103Z,63.79
2023-05-12T23:57:38.644Z,63.61
